sensor_id;sensor_type;location;lat;lon;timestamp;P1;durP1;ratioP1;P2;durP2;ratioP2
80123;SDS011;69433;48.642;9.142;2023-11-18T00:00:04;6.55;;;4.20;;
80123;SDS011;69433;48.642;9.142;2023-11-18T00:02:38;7.60;;;4.32;;
80123;SDS011;69433;48.642;9.142;2023-11-18T00:05:04;7.95;;;4.03;;
80123;SDS011;69433;48.642;9.142;2023-11-18T00:07:33;7.60;;;4.28;;
80123;SDS011;69433;48.642;9.142;2023-11-18T00:12:29;7.57;;;4.50;;
80123;SDS011;69433;48.642;9.142;2023-11-18T00:14:54;8.77;;;4.40;;
80123;SDS011;69433;48.642;9.142;2023-11-18T00:17:19;7.20;;;4.22;;
80123;SDS011;69433;48.642;9.142;2023-11-18T00:22:15;6.72;;;4.40;;
80123;SDS011;69433;48.642;9.142;2023-11-18T00:24:40;6.35;;;4.00;;
80123;SDS011;69433;48.642;9.142;2023-11-18T00:27:07;6.38;;;4.22;;
80123;SDS011;69433;48.642;9.142;2023-11-18T00:29:35;9.25;;;3.72;;
80123;SDS011;69433;48.642;9.142;2023-11-18T00:32:13;7.43;;;3.97;;
80123;SDS011;69433;48.642;9.142;2023-11-18T00:34:49;5.63;;;3.78;;
80123;SDS011;69433;48.642;9.142;2023-11-18T00:37:14;7.07;;;3.92;;
80123;SDS011;69433;48.642;9.142;2023-11-18T00:39:50;6.60;;;3.72;;
80123;SDS011;69433;48.642;9.142;2023-11-18T00:42:16;6.03;;;3.63;;
80123;SDS011;69433;48.642;9.142;2023-11-18T00:44:47;5.85;;;3.70;;
80123;SDS011;69433;48.642;9.142;2023-11-18T00:47:15;6.45;;;3.95;;
80123;SDS011;69433;48.642;9.142;2023-11-18T00:49:40;5.90;;;3.90;;
80123;SDS011;69433;48.642;9.142;2023-11-18T00:52:06;5.45;;;3.75;;
80123;SDS011;69433;48.642;9.142;2023-11-18T00:54:31;5.28;;;3.22;;
80123;SDS011;69433;48.642;9.142;2023-11-18T00:56:57;6.00;;;3.65;;
80123;SDS011;69433;48.642;9.142;2023-11-18T00:59:23;5.47;;;3.78;;
80123;SDS011;69433;48.642;9.142;2023-11-18T01:01:50;5.95;;;3.33;;
80123;SDS011;69433;48.642;9.142;2023-11-18T01:04:17;6.22;;;3.67;;
80123;SDS011;69433;48.642;9.142;2023-11-18T01:06:49;6.10;;;3.72;;
80123;SDS011;69433;48.642;9.142;2023-11-18T01:09:16;5.25;;;3.33;;
80123;SDS011;69433;48.642;9.142;2023-11-18T01:11:43;5.85;;;4.07;;
80123;SDS011;69433;48.642;9.142;2023-11-18T01:14:16;6.03;;;3.72;;
80123;SDS011;69433;48.642;9.142;2023-11-18T01:16:42;5.50;;;3.60;;
80123;SDS011;69433;48.642;9.142;2023-11-18T01:19:09;6.35;;;3.58;;
80123;SDS011;69433;48.642;9.142;2023-11-18T01:21:36;5.65;;;3.92;;
80123;SDS011;69433;48.642;9.142;2023-11-18T01:24:02;5.13;;;3.08;;
80123;SDS011;69433;48.642;9.142;2023-11-18T01:26:29;7.03;;;3.47;;
80123;SDS011;69433;48.642;9.142;2023-11-18T01:31:32;6.82;;;3.78;;
80123;SDS011;69433;48.642;9.142;2023-11-18T01:33:58;6.68;;;3.50;;
80123;SDS011;69433;48.642;9.142;2023-11-18T01:36:24;5.45;;;3.13;;
80123;SDS011;69433;48.642;9.142;2023-11-18T01:38:50;5.57;;;3.08;;
80123;SDS011;69433;48.642;9.142;2023-11-18T01:41:16;5.50;;;3.42;;
80123;SDS011;69433;48.642;9.142;2023-11-18T01:43:58;6.85;;;3.25;;
80123;SDS011;69433;48.642;9.142;2023-11-18T01:46:24;4.90;;;3.13;;
80123;SDS011;69433;48.642;9.142;2023-11-18T01:48:50;5.32;;;3.30;;
80123;SDS011;69433;48.642;9.142;2023-11-18T01:51:17;4.80;;;3.22;;
80123;SDS011;69433;48.642;9.142;2023-11-18T01:53:44;6.15;;;3.15;;
80123;SDS011;69433;48.642;9.142;2023-11-18T01:56:14;5.45;;;3.08;;
80123;SDS011;69433;48.642;9.142;2023-11-18T01:58:39;4.45;;;3.03;;
80123;SDS011;69433;48.642;9.142;2023-11-18T02:01:08;5.13;;;2.83;;
80123;SDS011;69433;48.642;9.142;2023-11-18T02:03:36;5.85;;;3.20;;
80123;SDS011;69433;48.642;9.142;2023-11-18T02:06:03;4.95;;;3.00;;
80123;SDS011;69433;48.642;9.142;2023-11-18T02:08:37;5.75;;;3.50;;
80123;SDS011;69433;48.642;9.142;2023-11-18T02:11:13;5.05;;;3.10;;
80123;SDS011;69433;48.642;9.142;2023-11-18T02:13:51;4.20;;;2.90;;
80123;SDS011;69433;48.642;9.142;2023-11-18T02:16:19;4.30;;;2.70;;
80123;SDS011;69433;48.642;9.142;2023-11-18T02:18:45;5.85;;;2.88;;
80123;SDS011;69433;48.642;9.142;2023-11-18T02:21:13;4.90;;;3.10;;
80123;SDS011;69433;48.642;9.142;2023-11-18T02:23:51;4.10;;;2.65;;
80123;SDS011;69433;48.642;9.142;2023-11-18T02:26:28;4.70;;;2.92;;
80123;SDS011;69433;48.642;9.142;2023-11-18T02:28:53;4.20;;;2.88;;
80123;SDS011;69433;48.642;9.142;2023-11-18T02:31:31;4.57;;;2.88;;
80123;SDS011;69433;48.642;9.142;2023-11-18T02:36:42;6.13;;;3.20;;
80123;SDS011;69433;48.642;9.142;2023-11-18T02:41:51;6.15;;;2.90;;
80123;SDS011;69433;48.642;9.142;2023-11-18T02:44:18;5.30;;;3.03;;
80123;SDS011;69433;48.642;9.142;2023-11-18T02:46:48;5.30;;;2.63;;
80123;SDS011;69433;48.642;9.142;2023-11-18T02:49:13;4.85;;;3.35;;
80123;SDS011;69433;48.642;9.142;2023-11-18T02:51:40;5.13;;;2.85;;
80123;SDS011;69433;48.642;9.142;2023-11-18T02:54:05;4.80;;;2.83;;
80123;SDS011;69433;48.642;9.142;2023-11-18T02:56:31;6.75;;;3.03;;
80123;SDS011;69433;48.642;9.142;2023-11-18T02:59:00;4.05;;;2.60;;
80123;SDS011;69433;48.642;9.142;2023-11-18T03:01:26;4.95;;;2.53;;
80123;SDS011;69433;48.642;9.142;2023-11-18T03:03:52;4.18;;;2.50;;
80123;SDS011;69433;48.642;9.142;2023-11-18T03:06:18;4.10;;;2.80;;
80123;SDS011;69433;48.642;9.142;2023-11-18T03:08:43;4.93;;;2.80;;
80123;SDS011;69433;48.642;9.142;2023-11-18T03:11:09;4.25;;;2.60;;
80123;SDS011;69433;48.642;9.142;2023-11-18T03:13:39;3.75;;;2.63;;
80123;SDS011;69433;48.642;9.142;2023-11-18T03:18:38;3.90;;;2.40;;
80123;SDS011;69433;48.642;9.142;2023-11-18T03:21:05;5.68;;;2.65;;
80123;SDS011;69433;48.642;9.142;2023-11-18T03:23:46;4.70;;;2.40;;
80123;SDS011;69433;48.642;9.142;2023-11-18T03:26:12;3.83;;;2.60;;
80123;SDS011;69433;48.642;9.142;2023-11-18T03:28:42;3.47;;;2.28;;
80123;SDS011;69433;48.642;9.142;2023-11-18T03:31:12;6.97;;;2.67;;
80123;SDS011;69433;48.642;9.142;2023-11-18T03:33:40;4.22;;;2.65;;
80123;SDS011;69433;48.642;9.142;2023-11-18T03:36:05;4.00;;;2.75;;
80123;SDS011;69433;48.642;9.142;2023-11-18T03:38:35;5.05;;;2.50;;
80123;SDS011;69433;48.642;9.142;2023-11-18T03:41:00;4.70;;;2.65;;
80123;SDS011;69433;48.642;9.142;2023-11-18T03:43:37;5.50;;;2.58;;
80123;SDS011;69433;48.642;9.142;2023-11-18T03:46:05;4.55;;;2.75;;
80123;SDS011;69433;48.642;9.142;2023-11-18T03:48:37;4.20;;;2.40;;
80123;SDS011;69433;48.642;9.142;2023-11-18T03:51:05;4.82;;;2.60;;
80123;SDS011;69433;48.642;9.142;2023-11-18T03:53:30;4.30;;;2.30;;
80123;SDS011;69433;48.642;9.142;2023-11-18T03:55:55;4.55;;;2.50;;
80123;SDS011;69433;48.642;9.142;2023-11-18T03:58:21;4.97;;;3.08;;
80123;SDS011;69433;48.642;9.142;2023-11-18T04:00:46;4.75;;;2.50;;
80123;SDS011;69433;48.642;9.142;2023-11-18T04:03:13;3.50;;;2.08;;
80123;SDS011;69433;48.642;9.142;2023-11-18T04:05:39;5.13;;;2.55;;
80123;SDS011;69433;48.642;9.142;2023-11-18T04:08:11;3.22;;;2.38;;
80123;SDS011;69433;48.642;9.142;2023-11-18T04:10:36;4.10;;;2.20;;
80123;SDS011;69433;48.642;9.142;2023-11-18T04:13:02;3.47;;;2.08;;
80123;SDS011;69433;48.642;9.142;2023-11-18T04:15:27;4.15;;;2.22;;
80123;SDS011;69433;48.642;9.142;2023-11-18T04:18:00;4.35;;;2.55;;
80123;SDS011;69433;48.642;9.142;2023-11-18T04:20:33;3.90;;;2.20;;
80123;SDS011;69433;48.642;9.142;2023-11-18T04:22:59;4.45;;;2.30;;
80123;SDS011;69433;48.642;9.142;2023-11-18T04:25:26;5.47;;;2.60;;
80123;SDS011;69433;48.642;9.142;2023-11-18T04:27:52;4.57;;;2.20;;
80123;SDS011;69433;48.642;9.142;2023-11-18T04:30:19;4.45;;;2.00;;
80123;SDS011;69433;48.642;9.142;2023-11-18T04:32:45;3.70;;;2.08;;
80123;SDS011;69433;48.642;9.142;2023-11-18T04:35:12;4.68;;;2.13;;
80123;SDS011;69433;48.642;9.142;2023-11-18T04:37:38;3.78;;;2.30;;
80123;SDS011;69433;48.642;9.142;2023-11-18T04:40:07;3.45;;;2.20;;
80123;SDS011;69433;48.642;9.142;2023-11-18T04:42:34;3.13;;;2.10;;
80123;SDS011;69433;48.642;9.142;2023-11-18T04:45:01;4.78;;;1.90;;
80123;SDS011;69433;48.642;9.142;2023-11-18T04:47:26;3.38;;;2.08;;
80123;SDS011;69433;48.642;9.142;2023-11-18T04:49:59;3.65;;;2.17;;
80123;SDS011;69433;48.642;9.142;2023-11-18T04:54:57;3.97;;;2.25;;
80123;SDS011;69433;48.642;9.142;2023-11-18T04:57:22;3.47;;;2.10;;
80123;SDS011;69433;48.642;9.142;2023-11-18T04:59:49;3.30;;;2.40;;
80123;SDS011;69433;48.642;9.142;2023-11-18T05:02:15;3.38;;;2.15;;
80123;SDS011;69433;48.642;9.142;2023-11-18T05:04:40;3.72;;;2.25;;
80123;SDS011;69433;48.642;9.142;2023-11-18T05:07:06;3.80;;;2.25;;
80123;SDS011;69433;48.642;9.142;2023-11-18T05:09:31;3.15;;;1.80;;
80123;SDS011;69433;48.642;9.142;2023-11-18T05:11:57;3.67;;;2.20;;
80123;SDS011;69433;48.642;9.142;2023-11-18T05:14:24;3.03;;;1.92;;
80123;SDS011;69433;48.642;9.142;2023-11-18T05:16:51;5.65;;;2.20;;
80123;SDS011;69433;48.642;9.142;2023-11-18T05:19:17;3.85;;;2.20;;
80123;SDS011;69433;48.642;9.142;2023-11-18T05:21:43;3.10;;;1.85;;
80123;SDS011;69433;48.642;9.142;2023-11-18T05:24:15;3.35;;;2.00;;
80123;SDS011;69433;48.642;9.142;2023-11-18T05:26:44;3.00;;;1.80;;
80123;SDS011;69433;48.642;9.142;2023-11-18T05:29:17;4.05;;;2.00;;
80123;SDS011;69433;48.642;9.142;2023-11-18T05:34:11;4.32;;;2.35;;
80123;SDS011;69433;48.642;9.142;2023-11-18T05:36:38;4.80;;;2.15;;
80123;SDS011;69433;48.642;9.142;2023-11-18T05:39:05;3.83;;;2.22;;
80123;SDS011;69433;48.642;9.142;2023-11-18T05:44:11;3.17;;;2.10;;
80123;SDS011;69433;48.642;9.142;2023-11-18T05:46:42;3.13;;;1.95;;
80123;SDS011;69433;48.642;9.142;2023-11-18T05:49:23;3.72;;;2.10;;
80123;SDS011;69433;48.642;9.142;2023-11-18T05:51:49;2.80;;;1.92;;
80123;SDS011;69433;48.642;9.142;2023-11-18T05:54:14;3.05;;;2.00;;
80123;SDS011;69433;48.642;9.142;2023-11-18T05:56:44;3.58;;;1.95;;
80123;SDS011;69433;48.642;9.142;2023-11-18T05:59:11;4.20;;;2.10;;
80123;SDS011;69433;48.642;9.142;2023-11-18T06:01:38;4.28;;;1.98;;
80123;SDS011;69433;48.642;9.142;2023-11-18T06:04:03;2.85;;;1.90;;
80123;SDS011;69433;48.642;9.142;2023-11-18T06:06:30;3.08;;;1.75;;
80123;SDS011;69433;48.642;9.142;2023-11-18T06:09:09;3.28;;;2.13;;
80123;SDS011;69433;48.642;9.142;2023-11-18T06:11:43;3.00;;;1.90;;
80123;SDS011;69433;48.642;9.142;2023-11-18T06:14:10;3.15;;;2.22;;
80123;SDS011;69433;48.642;9.142;2023-11-18T06:16:37;3.40;;;2.30;;
80123;SDS011;69433;48.642;9.142;2023-11-18T06:19:04;2.65;;;1.67;;
80123;SDS011;69433;48.642;9.142;2023-11-18T06:21:30;4.95;;;1.80;;
80123;SDS011;69433;48.642;9.142;2023-11-18T06:24:01;3.03;;;1.83;;
80123;SDS011;69433;48.642;9.142;2023-11-18T06:26:29;3.47;;;1.70;;
80123;SDS011;69433;48.642;9.142;2023-11-18T06:29:00;2.97;;;1.92;;
80123;SDS011;69433;48.642;9.142;2023-11-18T06:31:25;3.55;;;1.80;;
80123;SDS011;69433;48.642;9.142;2023-11-18T06:33:52;3.33;;;1.90;;
80123;SDS011;69433;48.642;9.142;2023-11-18T06:36:18;3.17;;;1.90;;
80123;SDS011;69433;48.642;9.142;2023-11-18T06:38:49;2.90;;;1.83;;
80123;SDS011;69433;48.642;9.142;2023-11-18T06:41:19;3.10;;;1.90;;
80123;SDS011;69433;48.642;9.142;2023-11-18T06:43:48;3.47;;;1.90;;
80123;SDS011;69433;48.642;9.142;2023-11-18T06:46:26;4.93;;;2.05;;
80123;SDS011;69433;48.642;9.142;2023-11-18T06:49:03;3.20;;;1.75;;
80123;SDS011;69433;48.642;9.142;2023-11-18T06:51:37;3.00;;;1.80;;
80123;SDS011;69433;48.642;9.142;2023-11-18T06:54:03;3.92;;;1.98;;
80123;SDS011;69433;48.642;9.142;2023-11-18T06:56:45;3.70;;;1.90;;
80123;SDS011;69433;48.642;9.142;2023-11-18T06:59:12;3.45;;;2.08;;
80123;SDS011;69433;48.642;9.142;2023-11-18T07:01:39;3.95;;;1.95;;
80123;SDS011;69433;48.642;9.142;2023-11-18T07:04:08;3.95;;;1.90;;
80123;SDS011;69433;48.642;9.142;2023-11-18T07:06:41;3.30;;;2.28;;
80123;SDS011;69433;48.642;9.142;2023-11-18T07:09:08;3.15;;;1.73;;
80123;SDS011;69433;48.642;9.142;2023-11-18T07:11:39;3.00;;;1.92;;
80123;SDS011;69433;48.642;9.142;2023-11-18T07:14:06;3.22;;;1.90;;
80123;SDS011;69433;48.642;9.142;2023-11-18T07:16:34;3.25;;;1.95;;
80123;SDS011;69433;48.642;9.142;2023-11-18T07:19:02;3.47;;;1.85;;
80123;SDS011;69433;48.642;9.142;2023-11-18T07:21:28;4.40;;;1.95;;
80123;SDS011;69433;48.642;9.142;2023-11-18T07:23:54;3.08;;;2.00;;
80123;SDS011;69433;48.642;9.142;2023-11-18T07:26:20;4.57;;;2.10;;
80123;SDS011;69433;48.642;9.142;2023-11-18T07:28:46;2.33;;;1.77;;
80123;SDS011;69433;48.642;9.142;2023-11-18T07:31:11;3.80;;;1.92;;
80123;SDS011;69433;48.642;9.142;2023-11-18T07:33:37;3.53;;;1.77;;
80123;SDS011;69433;48.642;9.142;2023-11-18T07:38:43;2.88;;;1.67;;
80123;SDS011;69433;48.642;9.142;2023-11-18T07:41:15;3.88;;;1.70;;
80123;SDS011;69433;48.642;9.142;2023-11-18T07:43:53;3.05;;;1.90;;
80123;SDS011;69433;48.642;9.142;2023-11-18T07:46:20;2.35;;;1.60;;
80123;SDS011;69433;48.642;9.142;2023-11-18T07:48:52;2.53;;;1.60;;
80123;SDS011;69433;48.642;9.142;2023-11-18T07:51:20;3.53;;;1.95;;
80123;SDS011;69433;48.642;9.142;2023-11-18T07:53:52;2.65;;;1.70;;
80123;SDS011;69433;48.642;9.142;2023-11-18T07:56:26;2.83;;;1.80;;
80123;SDS011;69433;48.642;9.142;2023-11-18T07:58:55;4.28;;;1.85;;
80123;SDS011;69433;48.642;9.142;2023-11-18T08:01:28;2.78;;;1.67;;
80123;SDS011;69433;48.642;9.142;2023-11-18T08:03:56;4.40;;;1.70;;
80123;SDS011;69433;48.642;9.142;2023-11-18T08:06:27;3.85;;;1.50;;
80123;SDS011;69433;48.642;9.142;2023-11-18T08:08:52;3.83;;;1.88;;
80123;SDS011;69433;48.642;9.142;2023-11-18T08:17:38;3.38;;;1.75;;
80123;SDS011;69433;48.642;9.142;2023-11-18T08:22:42;3.55;;;1.70;;
80123;SDS011;69433;48.642;9.142;2023-11-18T08:25:18;3.13;;;1.60;;
80123;SDS011;69433;48.642;9.142;2023-11-18T08:27:48;4.53;;;1.90;;
80123;SDS011;69433;48.642;9.142;2023-11-18T08:30:14;3.13;;;1.60;;
80123;SDS011;69433;48.642;9.142;2023-11-18T08:32:50;4.45;;;1.90;;
80123;SDS011;69433;48.642;9.142;2023-11-18T08:35:16;3.15;;;1.77;;
80123;SDS011;69433;48.642;9.142;2023-11-18T08:37:42;10.30;;;3.05;;
80123;SDS011;69433;48.642;9.142;2023-11-18T08:40:08;7.70;;;4.45;;
80123;SDS011;69433;48.642;9.142;2023-11-18T08:42:44;11.20;;;6.30;;
80123;SDS011;69433;48.642;9.142;2023-11-18T08:45:23;11.60;;;6.32;;
80123;SDS011;69433;48.642;9.142;2023-11-18T08:47:54;11.63;;;6.03;;
80123;SDS011;69433;48.642;9.142;2023-11-18T08:50:22;9.52;;;5.72;;
80123;SDS011;69433;48.642;9.142;2023-11-18T08:52:49;12.88;;;6.22;;
80123;SDS011;69433;48.642;9.142;2023-11-18T08:55:18;10.82;;;5.40;;
80123;SDS011;69433;48.642;9.142;2023-11-18T08:57:48;25.55;;;17.50;;
80123;SDS011;69433;48.642;9.142;2023-11-18T09:03:16;23.55;;;17.08;;
80123;SDS011;69433;48.642;9.142;2023-11-18T09:05:48;22.63;;;15.80;;
80123;SDS011;69433;48.642;9.142;2023-11-18T09:08:26;24.52;;;15.43;;
80123;SDS011;69433;48.642;9.142;2023-11-18T09:10:52;22.83;;;15.35;;
80123;SDS011;69433;48.642;9.142;2023-11-18T09:13:22;21.63;;;15.60;;
80123;SDS011;69433;48.642;9.142;2023-11-18T09:16:04;20.15;;;13.48;;
80123;SDS011;69433;48.642;9.142;2023-11-18T09:18:38;19.90;;;13.35;;
80123;SDS011;69433;48.642;9.142;2023-11-18T09:21:05;19.95;;;13.43;;
80123;SDS011;69433;48.642;9.142;2023-11-18T09:23:33;20.05;;;12.70;;
80123;SDS011;69433;48.642;9.142;2023-11-18T09:25:59;18.13;;;12.45;;
80123;SDS011;69433;48.642;9.142;2023-11-18T09:28:27;15.68;;;11.40;;
80123;SDS011;69433;48.642;9.142;2023-11-18T09:33:36;16.38;;;11.38;;
80123;SDS011;69433;48.642;9.142;2023-11-18T09:36:05;16.00;;;10.65;;
80123;SDS011;69433;48.642;9.142;2023-11-18T09:38:44;15.38;;;9.88;;
80123;SDS011;69433;48.642;9.142;2023-11-18T09:41:14;12.88;;;8.73;;
80123;SDS011;69433;48.642;9.142;2023-11-18T09:43:41;15.25;;;7.97;;
80123;SDS011;69433;48.642;9.142;2023-11-18T09:46:17;13.82;;;8.02;;
80123;SDS011;69433;48.642;9.142;2023-11-18T09:54:50;13.68;;;7.85;;
80123;SDS011;69433;48.642;9.142;2023-11-18T09:59:56;10.55;;;6.75;;
80123;SDS011;69433;48.642;9.142;2023-11-18T10:02:39;11.30;;;6.78;;
80123;SDS011;69433;48.642;9.142;2023-11-18T10:05:06;8.98;;;6.28;;
80123;SDS011;69433;48.642;9.142;2023-11-18T10:07:44;10.93;;;6.30;;
80123;SDS011;69433;48.642;9.142;2023-11-18T10:10:14;13.07;;;6.32;;
80123;SDS011;69433;48.642;9.142;2023-11-18T10:12:46;10.25;;;6.30;;
80123;SDS011;69433;48.642;9.142;2023-11-18T10:15:26;8.88;;;6.18;;
80123;SDS011;69433;48.642;9.142;2023-11-18T10:17:52;12.20;;;6.22;;
80123;SDS011;69433;48.642;9.142;2023-11-18T10:20:48;9.25;;;6.45;;
80123;SDS011;69433;48.642;9.142;2023-11-18T10:23:18;8.00;;;5.53;;
80123;SDS011;69433;48.642;9.142;2023-11-18T10:25:50;8.32;;;5.80;;
80123;SDS011;69433;48.642;9.142;2023-11-18T10:28:34;10.98;;;5.60;;
80123;SDS011;69433;48.642;9.142;2023-11-18T10:31:03;8.80;;;5.22;;
80123;SDS011;69433;48.642;9.142;2023-11-18T10:33:39;10.07;;;5.68;;
80123;SDS011;69433;48.642;9.142;2023-11-18T10:38:48;7.95;;;5.07;;
80123;SDS011;69433;48.642;9.142;2023-11-18T10:41:19;7.63;;;5.10;;
80123;SDS011;69433;48.642;9.142;2023-11-18T10:43:45;8.30;;;5.32;;
80123;SDS011;69433;48.642;9.142;2023-11-18T10:46:17;7.22;;;4.65;;
80123;SDS011;69433;48.642;9.142;2023-11-18T10:48:44;7.15;;;5.05;;
80123;SDS011;69433;48.642;9.142;2023-11-18T10:51:18;8.23;;;5.13;;
80123;SDS011;69433;48.642;9.142;2023-11-18T10:53:46;7.70;;;4.97;;
80123;SDS011;69433;48.642;9.142;2023-11-18T10:56:25;8.93;;;5.20;;
80123;SDS011;69433;48.642;9.142;2023-11-18T10:58:53;7.78;;;4.95;;
80123;SDS011;69433;48.642;9.142;2023-11-18T11:01:29;8.88;;;5.00;;
80123;SDS011;69433;48.642;9.142;2023-11-18T11:03:57;7.60;;;4.13;;
80123;SDS011;69433;48.642;9.142;2023-11-18T11:06:23;6.03;;;4.28;;
80123;SDS011;69433;48.642;9.142;2023-11-18T11:08:50;7.15;;;4.40;;
80123;SDS011;69433;48.642;9.142;2023-11-18T11:11:19;5.70;;;4.05;;
80123;SDS011;69433;48.642;9.142;2023-11-18T11:13:53;7.68;;;4.57;;
80123;SDS011;69433;48.642;9.142;2023-11-18T11:16:23;11.90;;;4.15;;
80123;SDS011;69433;48.642;9.142;2023-11-18T11:18:54;8.63;;;4.22;;
80123;SDS011;69433;48.642;9.142;2023-11-18T11:21:29;6.40;;;4.10;;
80123;SDS011;69433;48.642;9.142;2023-11-18T11:29:34;8.10;;;3.85;;
80123;SDS011;69433;48.642;9.142;2023-11-18T11:32:25;6.78;;;3.72;;
80123;SDS011;69433;48.642;9.142;2023-11-18T11:35:05;7.30;;;4.15;;
80123;SDS011;69433;48.642;9.142;2023-11-18T11:37:41;5.20;;;3.50;;
80123;SDS011;69433;48.642;9.142;2023-11-18T11:40:11;7.82;;;3.90;;
80123;SDS011;69433;48.642;9.142;2023-11-18T11:42:39;5.97;;;3.70;;
80123;SDS011;69433;48.642;9.142;2023-11-18T11:45:05;5.55;;;3.55;;
80123;SDS011;69433;48.642;9.142;2023-11-18T11:47:47;5.18;;;3.42;;
80123;SDS011;69433;48.642;9.142;2023-11-18T11:53:01;5.38;;;3.40;;
80123;SDS011;69433;48.642;9.142;2023-11-18T11:58:03;4.25;;;3.03;;
80123;SDS011;69433;48.642;9.142;2023-11-18T12:00:38;4.20;;;2.83;;
80123;SDS011;69433;48.642;9.142;2023-11-18T12:03:08;6.18;;;3.20;;
80123;SDS011;69433;48.642;9.142;2023-11-18T12:05:37;4.05;;;3.25;;
80123;SDS011;69433;48.642;9.142;2023-11-18T12:08:15;4.82;;;3.08;;
80123;SDS011;69433;48.642;9.142;2023-11-18T12:13:17;4.97;;;2.88;;
80123;SDS011;69433;48.642;9.142;2023-11-18T12:15:52;3.97;;;2.65;;
80123;SDS011;69433;48.642;9.142;2023-11-18T12:18:27;4.63;;;3.00;;
80123;SDS011;69433;48.642;9.142;2023-11-18T12:20:52;5.47;;;3.00;;
80123;SDS011;69433;48.642;9.142;2023-11-18T12:23:23;4.70;;;2.80;;
80123;SDS011;69433;48.642;9.142;2023-11-18T12:25:54;4.90;;;3.10;;
80123;SDS011;69433;48.642;9.142;2023-11-18T12:28:24;4.30;;;2.80;;
80123;SDS011;69433;48.642;9.142;2023-11-18T12:30:53;5.68;;;3.33;;
80123;SDS011;69433;48.642;9.142;2023-11-18T12:39:20;3.58;;;2.60;;
80123;SDS011;69433;48.642;9.142;2023-11-18T12:42:13;3.85;;;2.42;;
80123;SDS011;69433;48.642;9.142;2023-11-18T12:45:50;4.82;;;2.60;;
80123;SDS011;69433;48.642;9.142;2023-11-18T12:48:09;5.03;;;2.78;;
80123;SDS011;69433;48.642;9.142;2023-11-18T12:50:44;3.53;;;2.40;;
80123;SDS011;69433;48.642;9.142;2023-11-18T12:53:11;4.50;;;2.45;;
80123;SDS011;69433;48.642;9.142;2023-11-18T12:55:39;4.10;;;2.63;;
80123;SDS011;69433;48.642;9.142;2023-11-18T12:58:09;5.18;;;2.70;;
80123;SDS011;69433;48.642;9.142;2023-11-18T13:00:39;3.50;;;2.17;;
80123;SDS011;69433;48.642;9.142;2023-11-18T13:03:08;4.35;;;2.80;;
80123;SDS011;69433;48.642;9.142;2023-11-18T13:05:35;5.05;;;2.78;;
80123;SDS011;69433;48.642;9.142;2023-11-18T13:08:02;3.80;;;2.55;;
80123;SDS011;69433;48.642;9.142;2023-11-18T13:10:29;4.68;;;2.53;;
80123;SDS011;69433;48.642;9.142;2023-11-18T13:12:55;4.03;;;2.70;;
80123;SDS011;69433;48.642;9.142;2023-11-18T13:15:20;4.80;;;2.47;;
80123;SDS011;69433;48.642;9.142;2023-11-18T13:17:59;3.88;;;2.72;;
80123;SDS011;69433;48.642;9.142;2023-11-18T13:22:54;5.43;;;2.70;;
80123;SDS011;69433;48.642;9.142;2023-11-18T13:25:22;3.42;;;2.38;;
80123;SDS011;69433;48.642;9.142;2023-11-18T13:27:55;4.88;;;2.40;;
80123;SDS011;69433;48.642;9.142;2023-11-18T13:30:21;3.63;;;2.47;;
80123;SDS011;69433;48.642;9.142;2023-11-18T13:32:53;3.53;;;2.40;;
80123;SDS011;69433;48.642;9.142;2023-11-18T13:35:20;3.38;;;2.33;;
80123;SDS011;69433;48.642;9.142;2023-11-18T13:37:48;6.60;;;2.60;;
80123;SDS011;69433;48.642;9.142;2023-11-18T13:40:15;5.13;;;2.80;;
80123;SDS011;69433;48.642;9.142;2023-11-18T13:43:19;4.38;;;2.30;;
80123;SDS011;69433;48.642;9.142;2023-11-18T13:45:38;4.35;;;2.33;;
80123;SDS011;69433;48.642;9.142;2023-11-18T13:48:04;5.93;;;2.40;;
80123;SDS011;69433;48.642;9.142;2023-11-18T13:50:30;3.85;;;2.33;;
80123;SDS011;69433;48.642;9.142;2023-11-18T13:52:58;6.88;;;2.67;;
80123;SDS011;69433;48.642;9.142;2023-11-18T13:55:24;6.97;;;3.85;;
80123;SDS011;69433;48.642;9.142;2023-11-18T13:57:56;9.77;;;4.57;;
80123;SDS011;69433;48.642;9.142;2023-11-18T14:00:24;6.60;;;4.15;;
80123;SDS011;69433;48.642;9.142;2023-11-18T14:02:58;6.43;;;3.90;;
80123;SDS011;69433;48.642;9.142;2023-11-18T14:05:27;7.22;;;3.95;;
80123;SDS011;69433;48.642;9.142;2023-11-18T14:07:53;5.57;;;3.97;;
80123;SDS011;69433;48.642;9.142;2023-11-18T14:10:24;6.28;;;3.80;;
80123;SDS011;69433;48.642;9.142;2023-11-18T14:13:06;7.57;;;3.50;;
80123;SDS011;69433;48.642;9.142;2023-11-18T14:15:37;6.35;;;3.50;;
80123;SDS011;69433;48.642;9.142;2023-11-18T14:18:09;5.75;;;3.22;;
80123;SDS011;69433;48.642;9.142;2023-11-18T14:20:35;6.25;;;3.38;;
80123;SDS011;69433;48.642;9.142;2023-11-18T14:23:02;5.70;;;3.45;;
80123;SDS011;69433;48.642;9.142;2023-11-18T14:25:31;6.25;;;3.47;;
80123;SDS011;69433;48.642;9.142;2023-11-18T14:28:04;6.05;;;3.58;;
80123;SDS011;69433;48.642;9.142;2023-11-18T14:30:30;6.72;;;3.50;;
80123;SDS011;69433;48.642;9.142;2023-11-18T14:33:02;6.38;;;3.20;;
80123;SDS011;69433;48.642;9.142;2023-11-18T14:35:30;4.47;;;3.13;;
80123;SDS011;69433;48.642;9.142;2023-11-18T14:37:57;7.18;;;3.40;;
80123;SDS011;69433;48.642;9.142;2023-11-18T14:40:24;5.25;;;3.00;;
80123;SDS011;69433;48.642;9.142;2023-11-18T14:42:59;5.80;;;2.90;;
80123;SDS011;69433;48.642;9.142;2023-11-18T14:45:28;5.53;;;3.05;;
80123;SDS011;69433;48.642;9.142;2023-11-18T14:47:55;4.00;;;3.08;;
80123;SDS011;69433;48.642;9.142;2023-11-18T14:50:22;6.53;;;2.97;;
80123;SDS011;69433;48.642;9.142;2023-11-18T14:52:51;5.65;;;2.95;;
80123;SDS011;69433;48.642;9.142;2023-11-18T14:57:50;4.57;;;3.00;;
80123;SDS011;69433;48.642;9.142;2023-11-18T15:00:17;5.00;;;2.63;;
80123;SDS011;69433;48.642;9.142;2023-11-18T15:05:19;4.70;;;2.60;;
80123;SDS011;69433;48.642;9.142;2023-11-18T15:07:49;7.88;;;3.13;;
80123;SDS011;69433;48.642;9.142;2023-11-18T15:10:19;4.72;;;2.67;;
80123;SDS011;69433;48.642;9.142;2023-11-18T15:12:51;4.22;;;2.63;;
80123;SDS011;69433;48.642;9.142;2023-11-18T15:15:26;4.68;;;2.45;;
80123;SDS011;69433;48.642;9.142;2023-11-18T15:18:06;4.82;;;2.70;;
80123;SDS011;69433;48.642;9.142;2023-11-18T15:20:34;4.93;;;2.70;;
80123;SDS011;69433;48.642;9.142;2023-11-18T15:23:00;4.93;;;2.80;;
80123;SDS011;69433;48.642;9.142;2023-11-18T15:25:26;3.70;;;2.55;;
80123;SDS011;69433;48.642;9.142;2023-11-18T15:27:53;5.07;;;2.40;;
80123;SDS011;69433;48.642;9.142;2023-11-18T15:30:21;4.80;;;2.65;;
80123;SDS011;69433;48.642;9.142;2023-11-18T15:32:50;5.32;;;2.70;;
80123;SDS011;69433;48.642;9.142;2023-11-18T15:35:28;4.43;;;2.58;;
80123;SDS011;69433;48.642;9.142;2023-11-18T15:37:54;10.68;;;2.88;;
80123;SDS011;69433;48.642;9.142;2023-11-18T15:40:21;5.50;;;2.97;;
80123;SDS011;69433;48.642;9.142;2023-11-18T15:45:25;4.82;;;2.72;;
80123;SDS011;69433;48.642;9.142;2023-11-18T15:47:58;4.45;;;2.65;;
80123;SDS011;69433;48.642;9.142;2023-11-18T15:50:35;10.60;;;5.15;;
80123;SDS011;69433;48.642;9.142;2023-11-18T15:53:04;8.98;;;4.82;;
80123;SDS011;69433;48.642;9.142;2023-11-18T15:55:32;7.97;;;3.97;;
80123;SDS011;69433;48.642;9.142;2023-11-18T15:57:57;5.63;;;4.00;;
80123;SDS011;69433;48.642;9.142;2023-11-18T16:00:24;10.30;;;6.28;;
80123;SDS011;69433;48.642;9.142;2023-11-18T16:02:56;13.63;;;9.02;;
80123;SDS011;69433;48.642;9.142;2023-11-18T16:05:25;17.95;;;8.93;;
80123;SDS011;69433;48.642;9.142;2023-11-18T16:10:25;11.57;;;8.80;;
80123;SDS011;69433;48.642;9.142;2023-11-18T16:12:56;16.20;;;8.43;;
80123;SDS011;69433;48.642;9.142;2023-11-18T16:15:23;10.73;;;7.57;;
80123;SDS011;69433;48.642;9.142;2023-11-18T16:17:55;12.32;;;7.70;;
80123;SDS011;69433;48.642;9.142;2023-11-18T16:20:22;11.43;;;7.53;;
80123;SDS011;69433;48.642;9.142;2023-11-18T16:22:49;12.30;;;7.93;;